.
WxDataArchive / Data Records for 2014-11-27
2014-11-26 November 2014 2014-11-28

Data Records for Thursday, 27 November 2014

Time	Temp	Chill	HIndex	Humid	Dewpt	 Wind 	HiWind	WindDir	Rain 	Barom
-----	----	-----	------	-----	-----	------	------	-------	-----	-----
00:00	28.4	28.4	28.4	77	22.1	1	2	315	0.00	30.125 
00:05	28.4	28.4	28.4	77	22.1	0	1	315	0.00	30.125 
00:10	28.4	28.4	28.4	77	22.1	0	2	315	0.00	30.125 
00:15	28.4	28.4	28.4	77	22.1	0	3	270	0.00	30.125 
00:20	28.4	28.4	28.4	78	22.4	1	2	270	0.00	30.125 
00:25	28.4	28.4	28.4	78	22.4	1	4	292	0.00	30.125 
00:30	28.4	28.4	28.4	78	22.4	0	3	292	0.00	30.126 
00:35	28.4	28.4	28.4	78	22.4	1	3	292	0.00	30.126 
00:40	28.4	28.4	28.4	78	22.4	0	2	315	0.00	30.126 
00:45	28.4	28.4	28.4	79	22.7	0	1	315	0.00	30.125 
00:50	28.4	28.4	28.4	79	22.7	0	3	315	0.00	30.125 
00:55	28.4	28.4	28.4	79	22.7	0	1	315	0.00	30.125 
01:00	28.4	28.4	28.4	80	23.0	0	2	315	0.00	30.125 
01:05	28.4	28.4	28.4	80	23.0	1	2	315	0.00	30.125 
01:10	28.4	28.4	28.4	80	23.0	0	3	315	0.00	30.125 
01:15	28.4	28.4	28.4	80	23.0	0	2	315	0.00	30.124 
01:20	28.4	28.4	28.4	80	23.0	1	4	315	0.00	30.124 
01:25	28.4	28.4	28.4	80	23.0	1	4	315	0.00	30.124 
01:30	28.4	28.4	28.4	80	23.0	0	2	292	0.00	30.125 
01:35	28.4	28.4	28.4	81	23.3	0	2	292	0.00	30.125 
01:40	28.5	28.5	28.5	81	23.4	0	2	292	0.00	30.125 
01:45	28.5	28.5	28.5	81	23.4	0	2	292	0.00	30.124 
01:50	28.5	28.5	28.5	81	23.4	0	1	292	0.00	30.124 
01:55	28.5	28.5	28.5	81	23.4	0	2	292	0.00	30.124 
02:00	28.5	28.5	28.5	81	23.4	0	3	292	0.00	30.125 
02:05	28.5	28.5	28.5	81	23.4	0	2	292	0.00	30.125 
02:10	28.5	28.5	28.5	81	23.4	0	2	292	0.00	30.125 
02:15	28.5	28.5	28.5	81	23.4	0	1	292	0.00	30.132 
02:20	28.5	28.5	28.5	81	23.4	0	2	292	0.00	30.132 
02:25	28.5	28.5	28.5	81	23.4	0	1	292	0.00	30.132 
02:30	28.5	28.5	28.5	81	23.4	0	2	292	0.00	30.139 
02:35	28.5	28.5	28.5	81	23.4	0	1	292	0.00	30.139 
02:40	28.5	28.5	28.5	81	23.4	0	2	292	0.00	30.139 
02:45	28.5	28.5	28.5	81	23.4	0	3	292	0.00	30.141 
02:50	28.5	28.5	28.5	81	23.4	0	2	292	0.00	30.141 
02:55	28.5	28.5	28.5	81	23.4	0	2	292	0.00	30.141 
03:00	28.5	28.5	28.5	80	23.1	0	2	292	0.00	30.142 
03:05	28.5	28.5	28.5	80	23.1	0	2	292	0.00	30.142 
03:10	28.5	28.5	28.5	80	23.1	0	1	292	0.00	30.142 
03:15	28.5	28.5	28.5	80	23.1	0	2	292	0.00	30.143 
03:20	28.5	28.5	28.5	80	23.1	0	1	292	0.00	30.143 
03:25	28.7	28.7	28.7	80	23.3	0	2	292	0.00	30.143 
03:30	28.5	28.5	28.5	80	23.1	0	4	315	0.00	30.142 
03:35	28.7	28.7	28.7	80	23.3	1	3	315	0.00	30.142 
03:40	28.7	28.7	28.7	80	23.3	1	3	315	0.00	30.142 
03:45	28.7	28.7	28.7	80	23.3	0	2	315	0.00	30.141 
03:50	28.5	28.5	28.5	80	23.1	1	3	315	0.00	30.141 
03:55	28.5	28.5	28.5	80	23.1	1	4	315	0.00	30.141 
04:00	28.5	28.5	28.5	80	23.1	1	4	315	0.00	30.141 
04:05	28.5	28.5	28.5	80	23.1	1	5	315	0.00	30.141 
04:10	28.5	28.5	28.5	80	23.1	1	3	338	0.00	30.141 
04:15	28.5	28.5	28.5	80	23.1	1	3	338	0.00	30.148 
04:20	28.5	28.5	28.5	80	23.1	1	2	338	0.00	30.148 
04:25	28.5	28.5	28.5	80	23.1	0	2	338	0.00	30.148 
04:30	28.4	28.4	28.4	80	23.0	0	2	338	0.00	30.152 
04:35	28.4	28.4	28.4	80	23.0	0	1	338	0.00	30.152 
04:40	28.4	28.4	28.4	80	23.0	0	2	338	0.00	30.152 
04:45	28.4	28.4	28.4	79	22.7	0	1	338	0.00	30.155 
04:50	28.2	28.2	28.2	79	22.5	0	1	338	0.00	30.155 
04:55	28.2	28.2	28.2	79	22.5	0	1	338	0.00	30.155 
05:00	28.2	28.2	28.2	79	22.5	0	1	338	0.00	30.157 
05:05	28.2	28.2	28.2	78	22.2	0	1	338	0.00	30.157 
05:10	28.2	28.2	28.2	78	22.2	0	1	338	0.00	30.157 
05:15	28.4	28.4	28.4	78	22.4	0	2	338	0.00	30.159 
05:20	28.2	28.2	28.2	78	22.2	0	1	338	0.00	30.159 
05:25	28.2	28.2	28.2	78	22.2	0	1	338	0.00	30.159 
05:30	28.2	28.2	28.2	78	22.2	0	1	338	0.00	30.172 
05:35	28.2	28.2	28.2	78	22.2	0	1	338	0.00	30.172 
05:40	28.2	28.2	28.2	79	22.5	1	2	338	0.00	30.172 
05:45	28.2	28.2	28.2	79	22.5	0	2	270	0.00	30.178 
05:50	28.2	28.2	28.2	79	22.5	0	2	270	0.00	30.178 
05:55	28.1	28.1	28.1	80	22.7	0	2	270	0.00	30.178 
06:00	28.1	28.1	28.1	80	22.7	0	1	270	0.00	30.183 
06:05	28.1	28.1	28.1	80	22.7	1	2	270	0.00	30.183 
06:10	27.9	27.9	27.9	80	22.5	1	3	270	0.00	30.183 
06:15	27.9	27.9	27.9	80	22.5	0	2	270	0.00	30.187 
06:20	27.8	27.8	27.8	80	22.4	0	2	270	0.00	30.187 
06:25	27.8	27.8	27.8	80	22.4	0	2	270	0.00	30.187 
06:30	27.8	27.8	27.8	80	22.4	0	2	270	0.00	30.190 
06:35	27.8	27.8	27.8	81	22.7	0	2	270	0.00	30.190 
06:40	27.6	27.6	27.6	81	22.5	0	2	270	0.00	30.190 
06:45	27.6	27.6	27.6	81	22.5	0	1	270	0.00	30.191 
06:50	27.6	27.6	27.6	81	22.5	0	2	270	0.00	30.191 
06:55	27.5	27.5	27.5	81	22.4	0	2	270	0.00	30.191 
07:00	27.5	27.5	27.5	81	22.4	0	2	270	0.00	30.199 
07:05	27.5	27.5	27.5	81	22.4	0	1	270	0.00	30.199 
07:10	27.5	27.5	27.5	81	22.4	0	3	270	0.00	30.199 
07:15	27.5	27.5	27.5	80	22.2	0	1	270	0.00	30.203 
07:20	27.3	27.3	27.3	81	22.3	0	1	270	0.00	30.203 
07:25	27.3	27.3	27.3	81	22.3	0	2	270	0.00	30.203 
07:30	27.3	27.3	27.3	81	22.3	0	2	270	0.00	30.207 
07:35	27.3	27.3	27.3	81	22.3	0	1	270	0.00	30.207 
07:40	27.3	27.3	27.3	81	22.3	0	1	270	0.00	30.207 
07:45	27.3	27.3	27.3	81	22.3	0	1	270	0.00	30.210 
07:50	27.2	27.2	27.2	80	21.9	0	1	270	0.00	30.210 
07:55	27.2	27.2	27.2	80	21.9	0	1	270	0.00	30.210 
08:00	27.0	27.0	27.0	80	21.7	0	1	270	0.00	30.216 
08:05	27.0	27.0	27.0	80	21.7	0	1	270	0.00	30.216 
08:10	27.2	27.2	27.2	80	21.9	0	1	270	0.00	30.216 
08:15	27.2	27.2	27.2	80	21.9	0	1	270	0.00	30.216 
08:20	27.2	27.2	27.2	80	21.9	0	0	---	0.00	30.216 
08:25	27.3	27.3	27.3	80	22.0	0	1	270	0.00	30.216 
08:30	27.3	27.3	27.3	80	22.0	0	1	270	0.00	30.219 
08:35	27.5	27.5	27.5	80	22.2	0	1	270	0.00	30.219 
08:40	27.6	27.6	27.6	79	22.0	0	1	270	0.00	30.219 
08:45	27.6	27.6	27.6	79	22.0	0	2	270	0.00	30.224 
08:50	27.6	27.6	27.6	78	21.7	1	2	270	0.00	30.224 
08:55	27.6	27.6	27.6	78	21.7	0	2	270	0.00	30.224 
09:00	27.6	27.6	27.6	78	21.7	0	2	270	0.00	30.225 
09:05	27.9	27.9	27.9	79	22.2	0	1	270	0.00	30.225 
09:10	28.2	28.2	28.2	78	22.2	0	2	270	0.00	30.225 
09:15	28.4	28.4	28.4	78	22.4	1	4	270	0.00	30.233 
09:20	28.4	28.4	28.4	77	22.1	1	3	270	0.00	30.233 
09:25	28.5	28.5	28.5	77	22.2	1	2	270	0.00	30.233 
09:30	28.5	28.5	28.5	77	22.2	0	2	270	0.00	30.233 
09:35	28.7	28.7	28.7	77	22.4	1	2	270	0.00	30.233 
09:40	29.0	29.0	29.0	77	22.7	1	3	270	0.00	30.233 
09:45	29.3	29.3	29.3	77	23.0	0	2	270	0.00	30.237 
09:50	29.5	29.5	29.5	76	22.9	1	3	270	0.00	30.237 
09:55	29.5	29.5	29.5	76	22.9	0	2	270	0.00	30.237 
10:00	29.8	29.8	29.8	75	22.9	1	3	270	0.00	30.238 
10:05	30.1	30.1	30.1	75	23.2	1	3	270	0.00	30.238 
10:10	30.4	30.4	30.4	74	23.1	1	4	248	0.00	30.238 
10:15	30.7	30.7	30.7	74	23.4	1	2	248	0.00	30.242 
10:20	31.0	31.0	31.0	74	23.7	1	3	248	0.00	30.242 
10:25	31.3	31.3	31.3	73	23.7	1	3	248	0.00	30.242 
10:30	31.3	31.3	31.3	72	23.3	1	4	292	0.00	30.248 
10:35	31.5	31.5	31.5	72	23.5	1	3	292	0.00	30.248 
10:40	31.6	31.6	31.6	72	23.6	1	3	292	0.00	30.248 
10:45	31.8	31.8	31.8	72	23.8	1	3	292	0.00	30.250 
10:50	31.8	31.8	31.8	72	23.8	1	4	248	0.00	30.250 
10:55	31.8	31.8	31.8	72	23.8	1	2	248	0.00	30.250 
11:00	31.8	31.8	31.8	72	23.8	2	5	248	0.00	30.253 
11:05	31.6	31.6	31.6	72	23.6	1	3	270	0.00	30.253 
11:10	31.8	31.8	31.8	72	23.8	2	4	270	0.00	30.253 
11:15	31.8	31.8	31.8	71	23.5	2	4	270	0.00	30.249 
11:20	31.9	31.9	31.9	72	23.9	1	3	270	0.00	30.249 
11:25	32.2	32.2	32.2	73	24.5	1	3	270	0.00	30.249 
11:30	32.4	32.4	32.4	72	24.4	1	4	270	0.00	30.248 
11:35	32.5	32.5	32.5	73	24.8	1	3	270	0.00	30.248 
11:40	32.5	32.5	32.5	72	24.5	1	3	270	0.00	30.248 
11:45	32.4	32.4	32.4	71	24.1	2	4	270	0.00	30.245 
11:50	32.2	32.2	32.2	72	24.2	2	4	270	0.00	30.245 
11:55	32.4	32.4	32.4	73	24.7	1	3	270	0.00	30.245 
12:00	32.4	32.4	32.4	73	24.7	1	3	270	0.00	30.242 
12:05	32.2	32.2	32.2	73	24.5	1	4	270	0.00	30.242 
12:10	31.9	31.9	31.9	74	24.6	1	3	248	0.00	30.242 
12:15	31.8	31.8	31.8	76	25.1	1	4	248	0.00	30.238 
12:20	31.6	31.6	31.6	78	25.5	1	3	248	0.00	30.238 
12:25	31.5	31.5	31.5	79	25.8	1	3	248	0.00	30.238 
12:30	31.5	31.5	31.5	80	26.1	0	2	248	0.00	30.235 
12:35	31.5	31.5	31.5	81	26.4	1	3	248	0.00	30.235 
12:40	31.8	31.8	31.8	82	26.9	0	2	248	0.00	30.235 
12:45	31.9	31.9	31.9	83	27.3	1	4	248	0.00	30.232 
12:50	32.1	32.1	32.1	82	27.2	1	3	248	0.00	30.232 
12:55	32.1	32.1	32.1	82	27.2	1	5	248	0.00	30.232 
13:00	32.1	32.1	32.1	82	27.2	1	3	315	0.00	30.231 
13:05	32.1	32.1	32.1	82	27.2	1	3	315	0.00	30.231 
13:10	32.1	32.1	32.1	82	27.2	1	4	270	0.00	30.231 
13:15	32.2	32.2	32.2	81	27.0	2	5	315	0.00	30.231 
13:20	32.2	32.2	32.2	80	26.7	2	4	315	0.00	30.231 
13:25	32.2	32.2	32.2	80	26.7	2	6	338	0.00	30.231 
13:30	32.1	32.1	32.1	80	26.6	3	5	270	0.00	30.233 
13:35	31.8	31.8	31.8	81	26.6	2	6	270	0.00	30.233 
13:40	31.8	31.8	31.8	81	26.6	3	4	248	0.00	30.233 
13:45	32.1	32.1	32.1	82	27.2	1	4	315	0.00	30.234 
13:50	32.2	32.2	32.2	81	27.0	2	4	248	0.00	30.234 
13:55	32.2	32.2	32.2	79	26.4	2	7	248	0.00	30.234 
14:00	32.2	32.2	32.2	79	26.4	2	5	270	0.00	30.236 
14:05	32.4	32.4	32.4	77	26.0	2	4	248	0.00	30.236 
14:10	32.5	32.5	32.5	77	26.1	2	5	292	0.00	30.236 
14:15	32.5	32.5	32.5	76	25.8	3	6	270	0.00	30.234 
14:20	32.4	32.4	32.4	77	26.0	1	3	270	0.00	30.234 
14:25	32.1	32.1	32.1	76	25.4	3	7	270	0.00	30.234 
14:30	32.1	32.1	32.1	76	25.4	2	6	292	0.00	30.243 
14:35	32.2	32.2	32.2	76	25.5	3	6	292	0.00	30.243 
14:40	32.2	32.2	32.2	75	25.2	3	6	270	0.00	30.243 
14:45	32.1	32.1	32.1	75	25.1	2	5	270	0.00	30.244 
14:50	31.8	31.8	31.8	75	24.8	2	5	270	0.00	30.244 
14:55	31.6	31.6	31.6	76	24.9	2	5	248	0.00	30.244 
15:00	31.5	31.5	31.5	76	24.8	2	4	270	0.00	30.248 
15:05	31.3	31.3	31.3	76	24.6	3	5	270	0.00	30.248 
15:10	31.3	31.3	31.3	76	24.6	2	5	292	0.00	30.248 
15:15	31.2	31.2	31.2	76	24.5	2	5	270	0.00	30.251 
15:20	31.2	31.2	31.2	77	24.8	2	4	270	0.00	30.251 
15:25	31.2	31.2	31.2	77	24.8	2	5	270	0.00	30.251 
15:30	31.0	31.0	31.0	77	24.7	3	5	270	0.00	30.257 
15:35	30.9	30.9	30.9	77	24.6	3	6	270	0.00	30.257 
15:40	30.9	30.9	30.9	77	24.6	2	4	270	0.00	30.257 
15:45	30.9	30.9	30.9	77	24.6	2	5	248	0.00	30.263 
15:50	30.7	30.7	30.7	77	24.4	3	5	248	0.00	30.263 
15:55	30.7	30.7	30.7	77	24.4	3	5	270	0.00	30.263 
16:00	30.6	30.6	30.6	77	24.3	3	6	270	0.00	30.265 
16:05	30.6	30.6	30.6	77	24.3	2	4	270	0.00	30.265 
16:10	30.6	30.6	30.6	77	24.3	1	3	270	0.00	30.265 
16:15	30.4	30.4	30.4	77	24.1	3	5	270	0.00	30.270 
16:20	30.3	30.3	30.3	77	24.0	2	6	270	0.00	30.270 
16:25	30.3	30.3	30.3	77	24.0	1	4	270	0.00	30.270 
16:30	30.3	30.3	30.3	77	24.0	2	4	270	0.00	30.280 
16:35	30.1	30.1	30.1	78	24.1	2	4	292	0.00	30.280 
16:40	30.1	30.1	30.1	78	24.1	2	4	270	0.00	30.280 
16:45	30.1	30.1	30.1	78	24.1	1	4	270	0.00	30.286 
16:50	30.0	30.0	30.0	78	24.0	2	5	270	0.00	30.286 
16:55	29.8	29.8	29.8	79	24.1	3	5	292	0.00	30.286 
17:00	29.7	29.7	29.7	79	24.0	2	4	292	0.00	30.294 
17:05	29.7	29.7	29.7	80	24.3	2	4	270	0.00	30.294 
17:10	29.5	29.5	29.5	80	24.1	2	4	270	0.00	30.294 
17:15	29.4	29.4	29.4	80	24.0	3	5	270	0.00	30.298 
17:20	29.3	29.3	29.3	80	23.9	2	5	270	0.00	30.298 
17:25	29.3	29.3	29.3	80	23.9	2	5	292	0.00	30.298 
17:30	29.0	29.0	29.0	80	23.6	2	6	270	0.00	30.301 
17:35	28.8	28.8	28.8	80	23.4	2	5	270	0.00	30.301 
17:40	28.8	28.8	28.8	80	23.4	3	6	270	0.00	30.301 
17:45	28.7	28.7	28.7	79	23.0	2	5	270	0.00	30.311 
17:50	28.7	28.7	28.7	80	23.3	1	4	270	0.00	30.311 
17:55	28.5	28.5	28.5	80	23.1	3	5	292	0.00	30.311 
18:00	28.5	28.5	28.5	79	22.8	2	6	270	0.00	30.315 
18:05	28.4	28.4	28.4	79	22.7	2	4	270	0.00	30.315 
18:10	28.2	28.2	28.2	79	22.5	2	5	270	0.00	30.315 
18:15	28.2	28.2	28.2	78	22.2	2	4	270	0.00	30.316 
18:20	28.1	28.1	28.1	78	22.1	2	5	270	0.00	30.316 
18:25	27.9	27.9	27.9	78	21.9	2	5	270	0.00	30.316 
18:30	27.9	27.9	27.9	78	21.9	2	5	248	0.00	30.321 
18:35	27.9	27.9	27.9	78	21.9	2	5	248	0.00	30.321 
18:40	27.9	27.9	27.9	78	21.9	2	4	270	0.00	30.321 
18:45	28.1	28.1	28.1	78	22.1	2	5	270	0.00	30.328 
18:50	27.9	27.9	27.9	78	21.9	3	6	292	0.00	30.328 
18:55	27.9	27.9	27.9	77	21.6	2	5	270	0.00	30.328 
19:00	27.8	27.8	27.8	77	21.5	3	5	315	0.00	30.334 
19:05	27.8	27.8	27.8	77	21.5	1	4	270	0.00	30.334 
19:10	27.8	27.8	27.8	77	21.5	2	4	315	0.00	30.334 
19:15	27.6	27.6	27.6	77	21.4	3	6	270	0.00	30.343 
19:20	27.5	27.5	27.5	77	21.3	3	5	270	0.00	30.343 
19:25	27.5	27.5	27.5	77	21.3	1	3	270	0.00	30.343 
19:30	27.3	27.3	27.3	77	21.1	2	5	270	0.00	30.349 
19:35	27.2	27.2	27.2	77	21.0	3	7	292	0.00	30.349 
19:40	27.0	27.0	27.0	77	20.8	1	3	270	0.00	30.349 
19:45	27.0	27.0	27.0	77	20.8	2	5	270	0.00	30.349 
19:50	26.9	26.9	26.9	77	20.7	2	5	270	0.00	30.349 
19:55	26.9	26.9	26.9	77	20.7	2	4	270	0.00	30.349 
20:00	26.9	26.9	26.9	77	20.7	2	4	292	0.00	30.352 
20:05	26.7	26.7	26.7	78	20.8	1	6	270	0.00	30.352 
20:10	26.7	26.7	26.7	78	20.8	1	4	292	0.00	30.352 
20:15	26.7	26.7	26.7	78	20.8	1	4	270	0.00	30.357 
20:20	26.7	26.7	26.7	78	20.8	1	4	270	0.00	30.357 
20:25	26.7	26.7	26.7	78	20.8	2	4	292	0.00	30.357 
20:30	26.6	26.6	26.6	78	20.7	2	7	292	0.00	30.361 
20:35	26.6	26.6	26.6	78	20.7	2	5	292	0.00	30.361 
20:40	26.4	26.4	26.4	79	20.8	1	3	292	0.00	30.361 
20:45	26.4	26.4	26.4	79	20.8	2	4	270	0.00	30.360 
20:50	26.4	26.4	26.4	79	20.8	1	7	338	0.00	30.360 
20:55	26.3	26.3	26.3	79	20.7	2	4	292	0.00	30.360 
21:00	26.3	26.3	26.3	79	20.7	1	3	292	0.00	30.364 
21:05	26.3	26.3	26.3	79	20.7	2	4	292	0.00	30.364 
21:10	26.1	26.1	26.1	79	20.5	2	5	292	0.00	30.364 
21:15	26.1	26.1	26.1	79	20.5	2	5	270	0.00	30.363 
21:20	26.0	26.0	26.0	79	20.4	1	5	315	0.00	30.363 
21:25	26.0	26.0	26.0	80	20.7	0	2	292	0.00	30.363 
21:30	25.8	25.8	25.8	80	20.5	1	3	292	0.00	30.363 
21:35	25.8	25.8	25.8	79	20.2	2	4	315	0.00	30.363 
21:40	25.7	25.7	25.7	79	20.1	1	5	315	0.00	30.363 
21:45	25.8	25.8	25.8	78	19.9	1	4	270	0.00	30.362 
21:50	25.7	25.7	25.7	78	19.8	1	3	270	0.00	30.362 
21:55	25.7	25.7	25.7	77	19.5	2	4	270	0.00	30.362 
22:00	25.6	25.6	25.6	78	19.7	1	4	315	0.00	30.363 
22:05	25.4	25.4	25.4	78	19.5	0	2	338	0.00	30.363 
22:10	25.3	25.3	25.3	78	19.4	1	3	315	0.00	30.363 
22:15	25.3	25.3	25.3	77	19.1	2	6	338	0.00	30.363 
22:20	25.3	25.3	25.3	77	19.1	1	4	292	0.00	30.363 
22:25	25.3	25.3	25.3	77	19.1	1	3	338	0.00	30.363 
22:30	25.1	25.1	25.1	77	18.9	2	5	292	0.00	30.363 
22:35	25.1	25.1	25.1	77	18.9	1	3	292	0.00	30.363 
22:40	25.1	25.1	25.1	77	18.9	1	3	292	0.00	30.363 
22:45	25.0	25.0	25.0	77	18.8	2	5	292	0.00	30.367 
22:50	24.8	24.8	24.8	77	18.6	1	3	270	0.00	30.367 
22:55	24.7	24.7	24.7	78	18.8	0	3	270	0.00	30.367 
23:00	24.7	24.7	24.7	78	18.8	0	1	292	0.00	30.372 
23:05	24.7	24.7	24.7	78	18.8	1	4	270	0.00	30.372 
23:10	24.4	24.4	24.4	78	18.5	1	4	270	0.00	30.372 
23:15	24.2	24.2	24.2	79	18.6	1	3	270	0.00	30.374 
23:20	24.2	24.2	24.2	79	18.6	1	4	248	0.00	30.374 
23:25	24.1	24.1	24.1	79	18.5	1	3	315	0.00	30.374 
23:30	24.1	24.1	24.1	80	18.8	1	3	315	0.00	30.378 
23:35	24.1	24.1	24.1	80	18.8	1	3	315	0.00	30.378 
23:40	23.9	23.9	23.9	80	18.6	1	4	270	0.00	30.378 
23:45	23.8	23.8	23.8	80	18.5	1	3	270	0.00	30.379 
23:50	23.8	23.8	23.8	80	18.5	2	4	270	0.00	30.379 
23:55	23.6	23.6	23.6	80	18.4	2	4	270	0.00	30.379 

CoCoRaHS
IN-AL-39
A2 Web Hosting
Creative Commons License
GoDaddy
search engine by freefind advanced

loaded 2018-11-17 06:29:28 • last modified 2010-11-18 10:43:29
Privacy PolicyDisclaimer
• wx.awcolley.com is powered by PmWiki v.2002016 •
• all content (unless otherwise noted) © 2018 A W Colley